createdAt,value
2022-08-19T00:01:52.809Z,5.10
2022-08-19T00:04:37.573Z,4.90
2022-08-19T00:07:17.799Z,5.57
2022-08-19T00:10:04.289Z,4.93
2022-08-19T00:12:51.677Z,4.82
2022-08-19T00:15:31.285Z,4.63
2022-08-19T00:18:18.363Z,4.40
2022-08-19T00:20:58.286Z,4.82
2022-08-19T00:23:47.920Z,4.72
2022-08-19T00:26:28.352Z,5.00
2022-08-19T00:29:18.302Z,5.25
2022-08-19T00:32:00.712Z,5.30
2022-08-19T00:34:47.293Z,5.78
2022-08-19T00:37:29.370Z,5.10
2022-08-19T00:40:18.289Z,5.75
2022-08-19T00:43:05.305Z,5.80
2022-08-19T00:45:45.789Z,6.03
2022-08-19T00:48:34.301Z,6.78
2022-08-19T00:51:21.335Z,6.57
2022-08-19T00:54:04.408Z,6.63
2022-08-19T00:56:52.308Z,7.10
2022-08-19T00:59:56.389Z,7.07
2022-08-19T01:02:50.366Z,7.28
2022-08-19T01:05:37.299Z,7.25
2022-08-19T01:08:19.574Z,7.63
2022-08-19T01:11:13.317Z,7.97
2022-08-19T01:13:54.596Z,7.80
2022-08-19T01:16:44.309Z,7.38
2022-08-19T01:19:43.825Z,7.32
2022-08-19T01:22:33.990Z,7.63
2022-08-19T01:25:30.321Z,8.52
2022-08-19T01:28:42.452Z,8.52
2022-08-19T01:31:41.306Z,7.95
2022-08-19T01:34:28.315Z,8.13
2022-08-19T01:37:25.443Z,7.40
2022-08-19T01:40:09.418Z,7.30
2022-08-19T01:42:56.328Z,7.30
2022-08-19T01:45:38.467Z,7.55
2022-08-19T01:48:25.326Z,7.47
2022-08-19T01:51:06.748Z,6.85
2022-08-19T01:53:55.318Z,8.07
2022-08-19T01:56:36.326Z,7.13
2022-08-19T01:59:29.302Z,6.90
2022-08-19T02:02:16.417Z,8.02
2022-08-19T02:05:03.299Z,7.53
2022-08-19T02:07:45.513Z,7.25
2022-08-19T02:10:32.325Z,7.03
2022-08-19T02:13:12.403Z,6.97
2022-08-19T02:15:59.317Z,6.85
2022-08-19T02:18:39.353Z,5.82
2022-08-19T02:21:28.321Z,6.22
2022-08-19T02:24:08.358Z,6.20
2022-08-19T02:26:55.322Z,6.63
2022-08-19T02:29:42.370Z,5.90
2022-08-19T02:32:23.313Z,5.18
2022-08-19T02:35:12.358Z,5.53
2022-08-19T02:38:11.313Z,6.00
2022-08-19T02:41:02.905Z,5.43
2022-08-19T02:44:18.398Z,5.53
2022-08-19T02:46:53.413Z,7.50
2022-08-19T02:49:34.714Z,5.90
2022-08-19T02:52:21.454Z,5.60
2022-08-19T02:55:05.318Z,9.18
2022-08-19T02:57:52.320Z,9.60
2022-08-19T03:00:33.296Z,9.43
2022-08-19T03:03:21.329Z,9.55
2022-08-19T03:06:13.594Z,8.10
2022-08-19T03:09:01.322Z,7.70
2022-08-19T03:11:41.361Z,7.63
2022-08-19T03:14:28.329Z,6.90
2022-08-19T03:17:09.360Z,6.68
2022-08-19T03:19:56.331Z,7.07
2022-08-19T03:22:36.386Z,6.10
2022-08-19T03:25:24.330Z,5.63
2022-08-19T03:28:11.393Z,6.05
2022-08-19T03:31:06.320Z,6.10
2022-08-19T03:34:13.419Z,6.22
2022-08-19T03:36:55.364Z,6.20
2022-08-19T03:39:45.377Z,6.90
2022-08-19T03:42:38.407Z,5.57
2022-08-19T03:45:35.334Z,5.93
2022-08-19T03:48:16.362Z,5.50
2022-08-19T03:51:03.330Z,5.68
2022-08-19T03:53:50.330Z,4.82
2022-08-19T03:56:38.325Z,5.30
2022-08-19T03:59:23.301Z,5.38
2022-08-19T04:02:18.318Z,5.50
2022-08-19T04:05:01.394Z,4.88
2022-08-19T04:07:48.317Z,5.03
2022-08-19T04:10:36.350Z,5.38
2022-08-19T04:13:18.982Z,5.40
2022-08-19T04:16:05.320Z,4.53
2022-08-19T04:18:52.393Z,5.57
2022-08-19T04:21:34.325Z,4.82
2022-08-19T04:24:22.336Z,5.03
2022-08-19T04:27:02.975Z,5.57
2022-08-19T04:29:49.314Z,6.53
2022-08-19T04:32:29.378Z,6.20
2022-08-19T04:35:19.320Z,5.97
2022-08-19T04:38:00.397Z,5.82
2022-08-19T04:41:11.325Z,6.32
2022-08-19T04:43:52.402Z,5.15
2022-08-19T04:46:50.993Z,5.82
2022-08-19T04:52:18.331Z,5.85
2022-08-19T04:54:58.417Z,6.07
2022-08-19T04:57:47.328Z,6.10
2022-08-19T05:00:27.383Z,6.20
2022-08-19T05:03:14.356Z,5.72
2022-08-19T05:05:55.521Z,6.18
2022-08-19T05:08:43.321Z,7.03
2022-08-19T05:11:33.385Z,6.80
2022-08-19T05:14:20.342Z,6.25
2022-08-19T05:17:24.000Z,5.95
2022-08-19T05:20:26.355Z,6.47
2022-08-19T05:23:13.339Z,7.95
2022-08-19T05:26:09.331Z,9.07
2022-08-19T05:28:56.414Z,9.18
2022-08-19T05:31:37.341Z,11.57
2022-08-19T05:34:30.824Z,11.65
2022-08-19T05:37:12.353Z,11.75
2022-08-19T05:39:59.443Z,11.70
2022-08-19T05:42:39.361Z,11.30
2022-08-19T05:45:19.908Z,8.73
2022-08-19T05:48:06.361Z,7.55
2022-08-19T05:50:47.652Z,7.35
2022-08-19T05:53:34.342Z,6.30
2022-08-19T05:56:25.617Z,6.15
2022-08-19T05:59:06.351Z,7.20
2022-08-19T06:01:52.718Z,7.82
2022-08-19T06:04:39.354Z,8.82
2022-08-19T06:07:26.546Z,9.32
2022-08-19T06:10:06.363Z,9.18
2022-08-19T06:12:53.398Z,8.73
2022-08-19T06:15:35.349Z,10.32
2022-08-19T06:18:23.341Z,9.93
2022-08-19T06:21:25.350Z,10.32
2022-08-19T06:24:14.345Z,11.70
2022-08-19T06:26:59.198Z,10.40
2022-08-19T06:29:49.352Z,11.05
2022-08-19T06:32:29.761Z,11.98
2022-08-19T06:35:16.354Z,11.68
2022-08-19T06:37:56.528Z,11.70
2022-08-19T06:40:45.363Z,11.15
2022-08-19T06:43:28.136Z,19.77
2022-08-19T06:46:21.345Z,18.98
2022-08-19T06:49:08.354Z,19.63
2022-08-19T06:51:58.686Z,20.10
2022-08-19T06:54:55.441Z,20.00
2022-08-19T06:57:36.905Z,20.73
2022-08-19T07:00:24.412Z,20.40
2022-08-19T07:03:13.283Z,21.63
2022-08-19T07:05:53.736Z,22.40
2022-08-19T07:08:41.372Z,20.98
2022-08-19T07:11:24.398Z,21.15
2022-08-19T07:14:18.956Z,22.30
2022-08-19T07:17:01.402Z,24.65
2022-08-19T07:19:50.376Z,23.98
2022-08-19T07:22:30.400Z,24.02
2022-08-19T07:25:17.346Z,24.80
2022-08-19T07:28:14.362Z,21.60
2022-08-19T07:31:11.349Z,21.85
2022-08-19T07:33:53.316Z,20.67
2022-08-19T07:36:44.352Z,20.35
2022-08-19T07:39:35.412Z,21.42
2022-08-19T07:42:22.440Z,20.05
2022-08-19T07:45:02.370Z,20.90
2022-08-19T07:47:49.333Z,20.48
2022-08-19T07:50:37.345Z,18.83
2022-08-19T07:53:24.379Z,19.75
2022-08-19T07:56:05.102Z,19.40
2022-08-19T07:58:53.459Z,19.55
2022-08-19T08:01:42.429Z,19.83
2022-08-19T08:04:41.568Z,19.45
2022-08-19T08:07:47.375Z,18.00
2022-08-19T08:10:27.866Z,18.05
2022-08-19T08:13:14.452Z,17.48
2022-08-19T08:16:01.382Z,17.58
2022-08-19T08:18:50.803Z,17.27
2022-08-19T08:24:28.549Z,16.63
2022-08-19T08:27:15.382Z,17.00
2022-08-19T08:30:10.040Z,17.42
2022-08-19T08:32:50.384Z,16.55
2022-08-19T08:35:30.936Z,14.95
2022-08-19T08:38:18.397Z,16.05
2022-08-19T08:41:14.277Z,16.10
2022-08-19T08:43:59.411Z,16.80
2022-08-19T08:47:03.387Z,16.27
2022-08-19T08:49:59.380Z,14.52
2022-08-19T08:52:52.216Z,15.00
2022-08-19T08:55:42.365Z,14.30
2022-08-19T08:58:43.114Z,14.27
2022-08-19T09:01:30.494Z,15.07
2022-08-19T09:04:20.488Z,13.68
2022-08-19T09:07:26.198Z,13.32
2022-08-19T09:10:27.436Z,13.05
2022-08-19T09:13:24.373Z,13.70
2022-08-19T09:16:16.366Z,12.60
2022-08-19T09:19:07.384Z,12.32
2022-08-19T09:21:55.504Z,11.35
2022-08-19T09:24:36.397Z,10.88
2022-08-19T09:27:41.979Z,10.80
2022-08-19T09:30:35.390Z,10.38
2022-08-19T09:33:23.406Z,12.00
2022-08-19T09:36:23.448Z,11.20
2022-08-19T09:39:16.425Z,11.77
2022-08-19T09:42:03.370Z,11.68
2022-08-19T09:44:52.473Z,11.60
2022-08-19T09:47:32.370Z,10.45
2022-08-19T09:50:20.555Z,11.00
2022-08-19T09:53:01.376Z,10.27
2022-08-19T09:55:45.302Z,10.45
2022-08-19T09:58:35.380Z,10.05
2022-08-19T10:01:28.405Z,10.88
2022-08-19T10:04:20.536Z,9.63
2022-08-19T10:07:09.386Z,10.02
2022-08-19T10:09:49.453Z,9.70
2022-08-19T10:12:36.389Z,9.98
2022-08-19T10:15:28.760Z,9.18
2022-08-19T10:18:17.395Z,10.27
2022-08-19T10:20:58.432Z,8.73
2022-08-19T10:23:47.401Z,9.25
2022-08-19T10:26:30.466Z,9.48
2022-08-19T10:29:32.832Z,9.27
2022-08-19T10:32:16.509Z,8.85
2022-08-19T10:35:06.036Z,9.52
2022-08-19T10:37:57.462Z,9.25
2022-08-19T10:40:41.006Z,8.60
2022-08-19T10:43:27.404Z,8.60
2022-08-19T10:46:16.573Z,8.95
2022-08-19T10:48:56.952Z,8.70
2022-08-19T10:52:02.396Z,9.02
2022-08-19T10:55:08.910Z,9.40
2022-08-19T10:58:02.974Z,9.05
2022-08-19T11:00:44.425Z,9.30
2022-08-19T11:03:31.400Z,9.80
2022-08-19T11:06:18.474Z,9.50
2022-08-19T11:09:00.419Z,9.38
2022-08-19T11:11:48.488Z,9.70
2022-08-19T11:14:28.412Z,9.52
2022-08-19T11:17:14.498Z,10.23
2022-08-19T11:20:01.405Z,9.95
2022-08-19T11:22:43.198Z,10.90
2022-08-19T11:25:29.397Z,9.77
2022-08-19T11:28:23.432Z,9.55
2022-08-19T11:31:10.408Z,10.60
2022-08-19T11:33:53.387Z,10.38
2022-08-19T11:36:46.418Z,11.45
2022-08-19T11:39:28.465Z,10.85
2022-08-19T11:42:33.427Z,10.60
2022-08-19T11:45:15.111Z,10.95
2022-08-19T11:48:01.421Z,10.88
2022-08-19T11:50:50.406Z,11.00
2022-08-19T11:53:31.269Z,10.73
2022-08-19T11:56:20.427Z,10.73
2022-08-19T11:59:11.595Z,11.43
2022-08-19T12:01:54.496Z,10.70
2022-08-19T12:04:42.440Z,11.98
2022-08-19T12:07:29.426Z,11.15
2022-08-19T12:10:26.301Z,11.45
2022-08-19T12:13:16.439Z,10.80
2022-08-19T12:15:56.487Z,10.70
2022-08-19T12:18:43.454Z,11.75
2022-08-19T12:21:29.223Z,11.20
2022-08-19T12:24:15.428Z,11.40
2022-08-19T12:27:00.954Z,10.75
2022-08-19T12:29:56.436Z,11.27
2022-08-19T12:32:43.542Z,10.98
2022-08-19T12:35:23.437Z,11.75
2022-08-19T12:38:10.487Z,11.73
2022-08-19T12:41:00.072Z,11.55
2022-08-19T12:43:42.127Z,10.50
2022-08-19T12:46:28.445Z,10.93
2022-08-19T12:49:30.423Z,9.88
2022-08-19T12:52:16.466Z,9.95
2022-08-19T12:55:06.530Z,9.30
2022-08-19T12:57:46.455Z,9.32
2022-08-19T13:00:33.772Z,8.63
2022-08-19T13:03:13.437Z,8.88
2022-08-19T13:05:53.942Z,8.55
2022-08-19T13:08:40.458Z,8.25
2022-08-19T13:11:25.196Z,7.80
2022-08-19T13:14:11.484Z,7.53
2022-08-19T13:16:51.945Z,7.70
2022-08-19T13:19:39.453Z,7.68
2022-08-19T13:22:26.444Z,7.72
2022-08-19T13:25:06.517Z,7.60
2022-08-19T13:27:54.534Z,7.20
2022-08-19T13:30:53.114Z,7.68
2022-08-19T13:33:41.448Z,8.27
2022-08-19T13:36:28.434Z,8.05
2022-08-19T13:39:16.645Z,8.27
2022-08-19T13:41:57.438Z,9.95
2022-08-19T13:44:38.015Z,10.20
2022-08-19T13:47:24.446Z,9.65
2022-08-19T13:50:05.757Z,8.32
2022-08-19T13:52:53.495Z,9.02
2022-08-19T13:55:40.577Z,8.48
2022-08-19T13:58:21.462Z,8.75
2022-08-19T14:01:08.505Z,8.52
2022-08-19T14:03:55.476Z,10.48
2022-08-19T14:06:42.569Z,9.02
2022-08-19T14:09:22.506Z,7.95
2022-08-19T14:12:09.474Z,7.72
2022-08-19T14:14:49.538Z,7.70
2022-08-19T14:17:36.485Z,7.82
2022-08-19T14:20:18.789Z,7.90
2022-08-19T14:23:06.478Z,7.35
2022-08-19T14:25:47.457Z,6.80
2022-08-19T14:28:35.442Z,6.97
2022-08-19T14:31:28.996Z,6.53
2022-08-19T14:34:10.451Z,7.32
2022-08-19T14:36:57.540Z,6.80
2022-08-19T14:39:37.478Z,6.75
2022-08-19T14:42:24.473Z,6.72
2022-08-19T14:45:08.522Z,6.63
2022-08-19T14:47:55.614Z,6.72
2022-08-19T14:50:37.661Z,6.57
2022-08-19T14:53:31.475Z,6.05
2022-08-19T14:56:21.538Z,6.00
2022-08-19T14:59:02.470Z,5.43
2022-08-19T15:01:43.180Z,5.60
2022-08-19T15:04:33.782Z,5.40
2022-08-19T15:07:21.834Z,4.90
2022-08-19T15:10:01.996Z,5.68
2022-08-19T15:12:51.884Z,4.55
2022-08-19T15:15:31.577Z,4.30
2022-08-19T15:18:19.468Z,4.60
2022-08-19T15:21:06.488Z,4.25
2022-08-19T15:23:55.493Z,4.30
2022-08-19T15:26:35.528Z,4.38
2022-08-19T15:29:23.522Z,4.78
2022-08-19T15:32:03.532Z,4.65
2022-08-19T15:34:50.500Z,4.63
2022-08-19T15:37:30.558Z,4.57
2022-08-19T15:40:18.529Z,4.20
2022-08-19T15:42:59.539Z,4.43
2022-08-19T15:45:49.385Z,3.85
2022-08-19T15:48:29.657Z,3.88
2022-08-19T15:51:16.756Z,3.72
2022-08-19T15:53:57.657Z,3.60
2022-08-19T15:57:04.791Z,3.60
2022-08-19T16:00:04.502Z,3.65
2022-08-19T16:03:10.465Z,3.55
2022-08-19T16:06:16.473Z,3.17
2022-08-19T16:09:00.021Z,3.13
2022-08-19T16:11:56.580Z,2.92
2022-08-19T16:14:44.488Z,3.30
2022-08-19T16:17:31.494Z,3.13
2022-08-19T16:20:12.109Z,2.95
2022-08-19T16:22:59.505Z,2.72
2022-08-19T16:25:40.025Z,3.00
2022-08-19T16:28:26.493Z,2.90
2022-08-19T16:31:20.495Z,3.10
2022-08-19T16:34:07.639Z,2.67
2022-08-19T16:36:48.483Z,2.78
2022-08-19T16:39:35.583Z,2.67
2022-08-19T16:42:18.495Z,2.78
2022-08-19T16:45:05.482Z,3.13
2022-08-19T16:47:45.560Z,2.83
2022-08-19T16:50:48.819Z,3.00
2022-08-19T16:53:32.119Z,3.08
2022-08-19T16:56:19.743Z,2.83
2022-08-19T16:59:02.635Z,3.20
2022-08-19T17:01:50.535Z,2.63
2022-08-19T17:04:30.576Z,2.80
2022-08-19T17:07:17.501Z,2.80
2022-08-19T17:09:57.717Z,3.35
2022-08-19T17:12:44.481Z,3.05
2022-08-19T17:15:24.753Z,2.80
2022-08-19T17:18:14.502Z,4.15
2022-08-19T17:20:56.884Z,2.97
2022-08-19T17:23:44.202Z,3.05
2022-08-19T17:26:25.328Z,4.47
2022-08-19T17:29:18.490Z,4.63
2022-08-19T17:32:06.166Z,4.40
2022-08-19T17:34:45.499Z,3.00
2022-08-19T17:37:32.486Z,3.75
2022-08-19T17:40:15.610Z,4.45
2022-08-19T17:43:08.501Z,3.58
2022-08-19T17:45:49.610Z,4.60
2022-08-19T17:48:38.494Z,3.95
2022-08-19T17:51:43.590Z,4.05
2022-08-19T17:54:31.907Z,4.35
2022-08-19T17:57:14.087Z,4.72
2022-08-19T18:00:00.503Z,4.47
2022-08-19T18:03:04.687Z,4.00
2022-08-19T18:05:51.501Z,4.93
2022-08-19T18:08:38.502Z,4.43
2022-08-19T18:11:19.233Z,4.30
2022-08-19T18:14:05.499Z,4.90
2022-08-19T18:16:53.501Z,4.50
2022-08-19T18:19:41.266Z,4.20
2022-08-19T18:22:43.546Z,3.47
2022-08-19T18:25:32.506Z,3.45
2022-08-19T18:28:19.526Z,3.58
2022-08-19T18:31:06.643Z,3.53
2022-08-19T18:33:46.502Z,3.22
2022-08-19T18:36:52.899Z,2.75
2022-08-19T18:39:52.604Z,2.67
2022-08-19T18:42:58.152Z,2.58
2022-08-19T18:45:56.505Z,2.15
2022-08-19T18:48:57.006Z,2.47
2022-08-19T18:51:43.500Z,2.08
2022-08-19T18:54:32.527Z,2.22
2022-08-19T18:57:13.518Z,2.42
2022-08-19T18:59:56.512Z,2.42
2022-08-19T19:02:50.522Z,2.00
2022-08-19T19:05:31.024Z,2.25
2022-08-19T19:08:18.496Z,2.63
2022-08-19T19:11:11.517Z,2.40
2022-08-19T19:13:51.559Z,2.50
2022-08-19T19:16:39.508Z,2.05
2022-08-19T19:19:20.616Z,2.50
2022-08-19T19:22:11.514Z,2.33
2022-08-19T19:24:58.502Z,1.90
2022-08-19T19:27:40.309Z,2.65
2022-08-19T19:30:30.521Z,2.33
2022-08-19T19:33:17.855Z,2.33
2022-08-19T19:35:57.520Z,2.20
2022-08-19T19:38:38.077Z,2.10
2022-08-19T19:41:32.529Z,2.50
2022-08-19T19:44:30.487Z,2.40
2022-08-19T19:47:13.514Z,2.20
2022-08-19T19:50:17.834Z,2.13
2022-08-19T19:52:57.520Z,2.08
2022-08-19T19:55:44.585Z,2.38
2022-08-19T19:58:29.182Z,2.78
2022-08-19T20:01:21.662Z,2.60
2022-08-19T20:04:07.519Z,2.80
2022-08-19T20:06:54.544Z,3.45
2022-08-19T20:09:56.398Z,2.90
2022-08-19T20:12:41.521Z,2.80
2022-08-19T20:15:22.630Z,2.95
2022-08-19T20:18:11.511Z,2.40
2022-08-19T20:20:51.667Z,2.30
2022-08-19T20:23:38.531Z,2.58
2022-08-19T20:26:32.432Z,3.10
2022-08-19T20:29:39.448Z,3.17
2022-08-19T20:32:28.521Z,3.45
2022-08-19T20:35:08.612Z,2.67
2022-08-19T20:37:58.429Z,2.67
2022-08-19T20:40:45.693Z,3.10
2022-08-19T20:43:32.825Z,2.42
2022-08-19T20:46:12.920Z,2.92
2022-08-19T20:48:59.543Z,2.88
2022-08-19T20:51:39.706Z,2.70
2022-08-19T20:54:26.542Z,2.75
2022-08-19T20:57:06.570Z,3.30
2022-08-19T20:59:53.554Z,3.03
2022-08-19T21:02:40.532Z,3.65
2022-08-19T21:05:34.521Z,3.60
2022-08-19T21:08:18.228Z,4.05
2022-08-19T21:11:05.535Z,3.60
2022-08-19T21:14:06.343Z,4.50
2022-08-19T21:16:53.345Z,3.78
2022-08-19T21:19:33.416Z,4.13
2022-08-19T21:22:20.338Z,3.55
2022-08-19T21:25:00.413Z,4.15
2022-08-19T21:27:47.344Z,3.60
2022-08-19T21:30:27.385Z,4.07
2022-08-19T21:33:14.341Z,4.50
2022-08-19T21:35:56.472Z,4.13
2022-08-19T21:38:44.351Z,4.20
2022-08-19T21:41:24.390Z,4.53
2022-08-19T21:44:11.340Z,5.55
2022-08-19T21:46:51.404Z,5.65
2022-08-19T21:49:38.335Z,4.55
2022-08-19T21:52:25.434Z,4.00
2022-08-19T21:55:14.751Z,5.15
2022-08-19T21:57:54.617Z,5.60
2022-08-19T22:00:42.544Z,5.75
2022-08-19T22:03:25.340Z,4.32
2022-08-19T22:06:06.671Z,4.43
2022-08-19T22:08:54.346Z,4.22
2022-08-19T22:11:50.368Z,5.22
2022-08-19T22:14:44.361Z,4.80
2022-08-19T22:17:33.200Z,5.20
2022-08-19T22:20:17.364Z,5.28
2022-08-19T22:23:02.522Z,4.70
2022-08-19T22:25:54.362Z,5.28
2022-08-19T22:28:41.351Z,5.13
2022-08-19T22:31:21.478Z,5.30
2022-08-19T22:34:10.352Z,5.10
2022-08-19T22:36:57.369Z,5.30
2022-08-19T22:39:45.365Z,5.47
2022-08-19T22:42:32.399Z,5.03
2022-08-19T22:45:16.797Z,5.15
2022-08-19T22:48:03.341Z,5.20
2022-08-19T22:51:05.468Z,5.45
2022-08-19T22:53:55.354Z,5.05
2022-08-19T22:56:43.421Z,4.50
2022-08-19T22:59:23.368Z,5.38
2022-08-19T23:02:10.487Z,5.40
2022-08-19T23:04:50.379Z,5.15
2022-08-19T23:07:37.409Z,5.35
2022-08-19T23:10:26.541Z,5.05
2022-08-19T23:13:23.358Z,5.25
2022-08-19T23:16:10.368Z,5.93
2022-08-19T23:18:50.413Z,5.25
2022-08-19T23:21:42.337Z,5.70
2022-08-19T23:24:29.362Z,5.22
2022-08-19T23:27:35.076Z,4.82
2022-08-19T23:33:46.785Z,4.68
2022-08-19T23:36:38.357Z,5.35
2022-08-19T23:39:19.269Z,5.60
2022-08-19T23:42:08.381Z,5.78
2022-08-19T23:44:55.418Z,6.03
2022-08-19T23:47:37.348Z,5.55
2022-08-19T23:50:30.356Z,5.32
2022-08-19T23:53:17.362Z,6.15
2022-08-19T23:56:05.374Z,5.93
2022-08-19T23:58:55.357Z,5.95
